createdAt,value
2023-04-28T00:01:25.322Z,1012.18
2023-04-28T00:06:24.623Z,1012.03
2023-04-28T00:11:21.893Z,1012.01
2023-04-28T00:16:22.216Z,1012.01
2023-04-28T00:21:22.273Z,1012.01
2023-04-28T00:26:20.521Z,1011.95
2023-04-28T00:31:19.815Z,1011.89
2023-04-28T00:36:19.053Z,1011.93
2023-04-28T00:41:18.331Z,1011.84
2023-04-28T00:46:18.746Z,1011.90
2023-04-28T00:51:17.885Z,1011.92
2023-04-28T00:56:16.122Z,1011.87
2023-04-28T01:01:16.427Z,1011.79
2023-04-28T01:06:14.685Z,1011.84
2023-04-28T01:11:13.934Z,1011.81
2023-04-28T01:16:13.218Z,1011.80
2023-04-28T01:21:12.456Z,1011.66
2023-04-28T01:26:11.699Z,1011.65
2023-04-28T01:31:11.022Z,1011.54
2023-04-28T01:36:10.268Z,1011.55
2023-04-28T01:41:09.551Z,1011.55
2023-04-28T01:46:09.816Z,1011.59
2023-04-28T01:51:08.057Z,1011.51
2023-04-28T01:56:08.319Z,1011.59
2023-04-28T02:01:08.641Z,1011.57
2023-04-28T02:06:06.869Z,1011.55
2023-04-28T02:11:05.105Z,1011.62
2023-04-28T02:16:04.356Z,1011.67
2023-04-28T02:21:03.608Z,1011.65
2023-04-28T02:26:01.861Z,1011.56
2023-04-28T02:31:03.165Z,1011.50
2023-04-28T02:36:01.425Z,1011.48
2023-04-28T02:41:00.681Z,1011.54
2023-04-28T02:46:01.000Z,1011.67
2023-04-28T02:50:59.346Z,1011.88
2023-04-28T02:55:58.641Z,1012.25
2023-04-28T03:00:56.943Z,1012.31
2023-04-28T03:05:57.233Z,1012.37
2023-04-28T03:10:57.541Z,1012.43
2023-04-28T03:15:56.854Z,1012.35
2023-04-28T03:20:55.114Z,1012.34
2023-04-28T03:25:53.418Z,1012.36
2023-04-28T03:30:55.677Z,1012.23
2023-04-28T03:35:52.921Z,1012.16
2023-04-28T03:40:53.197Z,1012.06
2023-04-28T03:45:51.530Z,1012.04
2023-04-28T03:50:50.759Z,1012.09
2023-04-28T03:55:52.038Z,1011.99
2023-04-28T04:00:51.300Z,1012.08
2023-04-28T04:05:47.728Z,1012.30
2023-04-28T04:10:48.745Z,1012.45
2023-04-28T04:15:48.007Z,1012.51
2023-04-28T04:20:47.253Z,1012.74
2023-04-28T04:25:44.564Z,1012.89
2023-04-28T04:30:45.836Z,1012.77
2023-04-28T04:35:47.271Z,1012.95
2023-04-28T04:40:43.312Z,1012.66
2023-04-28T04:45:42.617Z,1012.65
2023-04-28T04:50:41.895Z,1012.88
2023-04-28T04:55:42.185Z,1012.91
2023-04-28T05:00:40.446Z,1012.83
2023-04-28T05:05:39.712Z,1012.88
2023-04-28T05:10:39.946Z,1012.94
2023-04-28T05:15:39.185Z,1012.99
2023-04-28T05:20:38.446Z,1013.21
2023-04-28T05:25:37.716Z,1012.96
2023-04-28T05:30:35.966Z,1013.12
2023-04-28T05:35:35.230Z,1013.39
2023-04-28T05:40:34.552Z,1013.22
2023-04-28T05:45:34.862Z,1013.31
2023-04-28T05:50:33.139Z,1013.47
2023-04-28T05:55:32.432Z,1013.33
2023-04-28T06:00:31.677Z,1013.59
2023-04-28T06:05:31.214Z,1013.65
2023-04-28T06:10:29.127Z,1013.60
2023-04-28T06:15:30.409Z,1013.49
2023-04-28T06:20:28.669Z,1013.42
2023-04-28T06:25:27.936Z,1013.31
2023-04-28T06:30:27.224Z,1013.25
2023-04-28T06:35:28.584Z,1013.15
2023-04-28T06:40:25.885Z,1013.34
2023-04-28T06:45:26.153Z,1013.39
2023-04-28T06:50:24.521Z,1013.40
2023-04-28T06:55:23.634Z,1013.34
2023-04-28T07:00:23.912Z,1013.22
2023-04-28T07:05:22.166Z,1013.31
2023-04-28T07:10:22.414Z,1013.45
2023-04-28T07:15:21.658Z,1013.40
2023-04-28T07:20:19.911Z,1013.42
2023-04-28T07:25:19.167Z,1013.46
2023-04-28T07:35:17.752Z,1013.33
2023-04-28T07:40:18.038Z,1013.18
2023-04-28T07:45:17.309Z,1013.20
2023-04-28T07:50:17.564Z,1013.16
2023-04-28T07:55:14.801Z,1013.00
2023-04-28T08:00:15.061Z,1013.09
2023-04-28T08:05:13.546Z,1013.03
2023-04-28T08:10:13.543Z,1013.01
2023-04-28T08:15:11.815Z,1013.01
2023-04-28T08:20:11.094Z,1012.89
2023-04-28T08:25:10.350Z,1012.78
2023-04-28T08:30:09.618Z,1013.00
2023-04-28T08:35:09.880Z,1013.25
2023-04-28T08:40:09.122Z,1013.52
2023-04-28T08:45:08.393Z,1013.58
2023-04-28T08:50:06.664Z,1013.75
2023-04-28T08:55:05.944Z,1013.56
2023-04-28T09:00:06.268Z,1013.40
2023-04-28T09:05:05.798Z,1013.49
2023-04-28T09:10:03.854Z,1013.65
2023-04-28T09:15:03.137Z,1013.33
2023-04-28T09:20:03.458Z,1013.37
2023-04-28T09:25:01.952Z,1013.24
2023-04-28T09:30:01.363Z,1013.43
2023-04-28T09:35:00.352Z,1013.34
2023-04-28T09:40:00.435Z,1013.30
2023-04-28T09:44:58.710Z,1013.45
2023-04-28T09:49:57.997Z,1013.38
2023-04-28T09:54:58.290Z,1013.40
2023-04-28T09:59:56.516Z,1013.37
2023-04-28T10:04:55.953Z,1013.49
2023-04-28T10:09:57.052Z,1013.32
2023-04-28T10:14:54.349Z,1013.17
2023-04-28T10:19:55.625Z,1013.01
2023-04-28T10:24:52.882Z,1012.96
2023-04-28T10:29:52.185Z,1012.96
2023-04-28T10:34:51.517Z,1013.02
2023-04-28T10:39:50.820Z,1012.96
2023-04-28T10:44:50.118Z,1013.02
2023-04-28T10:49:49.421Z,1013.43
2023-04-28T10:54:48.705Z,1013.44
2023-04-28T10:59:48.992Z,1013.04
2023-04-28T11:04:48.456Z,1013.19
2023-04-28T11:09:48.606Z,1013.37
2023-04-28T11:14:45.900Z,1013.50
2023-04-28T11:19:47.182Z,1013.33
2023-04-28T11:24:44.481Z,1013.10
2023-04-28T11:29:43.784Z,1013.13
2023-04-28T11:34:44.081Z,1013.12
2023-04-28T11:39:42.338Z,1013.28
2023-04-28T11:44:42.608Z,1013.27
2023-04-28T11:49:40.869Z,1013.26
2023-04-28T11:54:40.157Z,1013.19
2023-04-28T11:59:40.777Z,1013.18
2023-04-28T12:04:37.733Z,1013.08
2023-04-28T12:09:38.868Z,1013.05
2023-04-28T12:14:38.076Z,1012.93
2023-04-28T12:19:37.375Z,1013.03
2023-04-28T12:24:37.645Z,1013.09
2023-04-28T12:29:35.921Z,1013.03
2023-04-28T12:34:35.201Z,1012.94
2023-04-28T12:39:35.952Z,1013.18
2023-04-28T12:44:32.828Z,1013.11
2023-04-28T12:49:32.127Z,1013.06
2023-04-28T12:54:32.434Z,1013.06
2023-04-28T12:59:30.711Z,1012.88
2023-04-28T13:04:31.322Z,1012.95
2023-04-28T13:09:29.224Z,1012.89
2023-04-28T13:14:28.478Z,1012.73
2023-04-28T13:19:27.754Z,1012.68
2023-04-28T13:24:27.994Z,1012.81
2023-04-28T13:29:27.280Z,1012.65
2023-04-28T13:34:26.518Z,1012.85
2023-04-28T13:39:25.775Z,1012.88
2023-04-28T13:44:24.050Z,1013.05
2023-04-28T13:49:24.348Z,1012.79
2023-04-28T13:54:22.612Z,1012.87
2023-04-28T13:59:22.878Z,1012.63
2023-04-28T14:04:21.419Z,1012.54
2023-04-28T14:09:21.460Z,1012.70
2023-04-28T14:14:19.729Z,1012.52
2023-04-28T14:19:20.030Z,1012.43
2023-04-28T14:24:18.310Z,1012.39
2023-04-28T14:29:18.547Z,1012.45
2023-04-28T14:34:16.841Z,1012.17
2023-04-28T14:39:16.147Z,1012.14
2023-04-28T14:44:18.556Z,1012.33
2023-04-28T14:49:14.620Z,1012.21
2023-04-28T14:54:14.899Z,1012.24
2023-04-28T14:59:14.161Z,1011.99
2023-04-28T15:04:13.484Z,1011.97
2023-04-28T15:09:11.597Z,1012.13
2023-04-28T15:14:10.888Z,1012.04
2023-04-28T15:19:11.191Z,1011.83
2023-04-28T15:24:09.436Z,1011.85
2023-04-28T15:29:09.686Z,1011.71
2023-04-28T15:34:08.045Z,1011.62
2023-04-28T15:39:08.132Z,1011.57
2023-04-28T15:44:06.398Z,1011.60
2023-04-28T15:49:06.661Z,1011.84
2023-04-28T15:54:05.942Z,1011.67
2023-04-28T15:59:04.237Z,1011.50
2023-04-28T16:04:04.858Z,1011.73
2023-04-28T16:09:03.858Z,1011.54
2023-04-28T16:14:03.137Z,1011.38
2023-04-28T16:19:00.428Z,1011.33
2023-04-28T16:23:59.658Z,1011.11
2023-04-28T16:28:59.889Z,1010.68
2023-04-28T16:33:59.175Z,1011.15
2023-04-28T16:38:58.431Z,1010.89
2023-04-28T16:43:58.691Z,1010.67
2023-04-28T16:48:56.950Z,1010.74
2023-04-28T16:53:59.363Z,1010.81
2023-04-28T16:58:55.396Z,1011.02
2023-04-28T17:03:55.763Z,1010.71
2023-04-28T17:08:54.864Z,1010.79
2023-04-28T17:13:54.106Z,1010.72
2023-04-28T17:18:52.361Z,1010.99
2023-04-28T17:23:51.645Z,1010.91
2023-04-28T17:28:51.903Z,1010.56
2023-04-28T17:33:50.180Z,1010.78
2023-04-28T17:38:49.490Z,1011.15
2023-04-28T17:43:48.784Z,1010.94
2023-04-28T17:48:48.076Z,1011.05
2023-04-28T17:53:47.377Z,1011.09
2023-04-28T17:58:46.635Z,1011.47
2023-04-28T18:03:47.885Z,1011.36
2023-04-28T18:08:46.187Z,1011.68
2023-04-28T18:13:44.477Z,1011.36
2023-04-28T18:18:46.133Z,1011.67
2023-04-28T18:23:43.381Z,1011.53
2023-04-28T18:28:43.711Z,1011.48
2023-04-28T18:33:41.717Z,1011.53
2023-04-28T18:38:41.121Z,1011.45
2023-04-28T18:43:40.209Z,1011.50
2023-04-28T18:48:40.694Z,1011.41
2023-04-28T18:53:38.415Z,1011.36
2023-04-28T18:58:39.000Z,1011.69
2023-04-28T19:03:36.460Z,1011.69
2023-04-28T19:08:37.275Z,1011.86
2023-04-28T19:13:36.409Z,1011.90
2023-04-28T19:18:35.085Z,1011.78
2023-04-28T19:23:35.122Z,1012.09
2023-04-28T19:28:33.335Z,1011.93
2023-04-28T19:33:32.398Z,1012.08
2023-04-28T19:38:31.995Z,1011.84
2023-04-28T19:43:31.124Z,1011.98
2023-04-28T19:48:30.264Z,1011.85
2023-04-28T19:53:29.500Z,1011.83
2023-04-28T19:58:30.743Z,1011.91
2023-04-28T20:03:28.329Z,1011.73
2023-04-28T20:08:28.107Z,1011.67
2023-04-28T20:13:28.338Z,1011.54
2023-04-28T20:18:26.555Z,1011.48
2023-04-28T20:23:24.885Z,1011.63
2023-04-28T20:28:28.154Z,1011.59
2023-04-28T20:33:23.200Z,1011.72
2023-04-28T20:38:22.490Z,1011.66
2023-04-28T20:43:23.877Z,1011.72
2023-04-28T20:48:20.921Z,1011.75
2023-04-28T20:53:21.246Z,1011.89
2023-04-28T20:58:19.548Z,1012.00
2023-04-28T21:03:19.854Z,1012.01
2023-04-28T21:08:17.975Z,1012.00
2023-04-28T21:13:17.233Z,1012.11
2023-04-28T21:18:18.475Z,1012.21
2023-04-28T21:23:15.704Z,1012.11
2023-04-28T21:28:14.981Z,1011.89
2023-04-28T21:33:14.271Z,1011.74
2023-04-28T21:38:12.541Z,1011.78
2023-04-28T21:43:12.827Z,1011.61
2023-04-28T21:48:13.256Z,1011.56
2023-04-28T21:53:12.400Z,1011.36
2023-04-28T21:58:10.661Z,1011.40
2023-04-28T22:03:11.220Z,1011.67
2023-04-28T22:08:09.218Z,1011.61
2023-04-28T22:13:08.519Z,1011.43
2023-04-28T22:18:07.793Z,1011.30
2023-04-28T22:23:07.076Z,1011.33
2023-04-28T22:28:07.368Z,1011.30
2023-04-28T22:33:05.645Z,1011.33
2023-04-28T22:38:04.940Z,1011.30
2023-04-28T22:43:04.225Z,1011.17
2023-04-28T22:48:04.516Z,1011.18
2023-04-28T22:53:04.771Z,1011.14
2023-04-28T22:58:02.056Z,1011.04
2023-04-28T23:03:01.413Z,1011.08
2023-04-28T23:08:01.559Z,1011.11
2023-04-28T23:13:00.853Z,1011.26
2023-04-28T23:17:59.223Z,1011.31
2023-04-28T23:22:58.474Z,1011.36
2023-04-28T23:27:59.757Z,1011.35
2023-04-28T23:33:01.041Z,1011.55
2023-04-28T23:37:57.293Z,1011.49
2023-04-28T23:42:55.618Z,1011.11
2023-04-28T23:47:55.871Z,1011.47
2023-04-28T23:52:53.983Z,1011.27
2023-04-28T23:57:53.358Z,1011.01
